createdAt,value
2022-12-18T00:04:42.826Z,33.8
2022-12-18T00:06:47.790Z,42.2
2022-12-18T00:08:49.585Z,36.2
2022-12-18T00:10:51.352Z,36.4
2022-12-18T00:12:53.117Z,38.9
2022-12-18T00:14:54.915Z,40.2
2022-12-18T00:16:56.702Z,40.7
2022-12-18T00:21:03.423Z,45.9
2022-12-18T00:23:05.213Z,37.5
2022-12-18T00:25:06.995Z,41
2022-12-18T00:27:08.755Z,39.6
2022-12-18T00:29:10.534Z,39.6
2022-12-18T00:31:12.334Z,39.3
2022-12-18T00:33:14.087Z,37.7
2022-12-18T00:35:19.030Z,42.5
2022-12-18T00:37:20.798Z,37.9
2022-12-18T00:39:22.554Z,41.2
2022-12-18T00:40:22.905Z,41.8
2022-12-18T00:46:28.259Z,36.3
2022-12-18T00:48:33.197Z,44.3
2022-12-18T00:50:36.525Z,39.8
2022-12-18T00:54:40.023Z,39.5
2022-12-18T00:56:48.033Z,39.8
2022-12-18T00:58:43.542Z,36.4
2022-12-18T01:00:45.390Z,37.1
2022-12-18T01:02:50.465Z,38.6
2022-12-18T01:06:53.875Z,41
2022-12-18T01:15:01.001Z,29.4
2022-12-18T01:19:07.752Z,33.3
2022-12-18T01:21:09.525Z,33.2
2022-12-18T01:23:11.315Z,33.7
2022-12-18T01:25:13.065Z,36
2022-12-18T01:27:14.824Z,34.2
2022-12-18T01:29:16.609Z,32
2022-12-18T01:31:21.702Z,36.8
2022-12-18T01:33:23.317Z,38.5
2022-12-18T01:35:25.053Z,35.9
2022-12-18T01:39:49.514Z,37.7
2022-12-18T01:41:51.255Z,33.8
2022-12-18T01:43:56.148Z,38
2022-12-18T01:45:57.950Z,35.4
2022-12-18T01:47:59.627Z,29.3
2022-12-18T01:52:03.107Z,34.9
2022-12-18T01:54:04.809Z,31.5
2022-12-18T01:56:06.557Z,34.1
2022-12-18T02:00:13.161Z,36.2
2022-12-18T02:02:14.998Z,35.7
2022-12-18T02:04:16.623Z,35.3
2022-12-18T02:06:18.359Z,39.3
2022-12-18T02:08:20.100Z,33.6
2022-12-18T02:10:21.822Z,32.5
2022-12-18T02:12:26.708Z,39.3
2022-12-18T02:14:28.438Z,35.5
2022-12-18T02:16:30.241Z,32.6
2022-12-18T02:18:31.870Z,31.4
2022-12-18T02:20:33.593Z,34.8
2022-12-18T02:22:35.293Z,33.8
2022-12-18T02:24:37.006Z,33
2022-12-18T02:26:41.920Z,36.6
2022-12-18T02:28:43.619Z,34.4
2022-12-18T02:30:45.449Z,30.8
2022-12-18T02:31:47.766Z,33.9
2022-12-18T02:33:49.479Z,35.1
2022-12-18T02:35:51.183Z,30.7
2022-12-18T02:37:52.896Z,34.8
2022-12-18T02:39:57.796Z,41.9
2022-12-18T02:41:59.494Z,39.9
2022-12-18T02:44:01.158Z,35.8
2022-12-18T02:46:02.931Z,35.7
2022-12-18T02:48:04.567Z,34.4
2022-12-18T02:50:06.223Z,32.6
2022-12-18T02:52:07.892Z,33.4
2022-12-18T02:54:12.770Z,42
2022-12-18T02:56:14.482Z,35
2022-12-18T02:58:16.175Z,36.3
2022-12-18T03:02:19.801Z,37
2022-12-18T03:04:21.195Z,33.6
2022-12-18T03:06:22.851Z,33.7
2022-12-18T03:08:27.754Z,38
2022-12-18T03:10:29.404Z,35.4
2022-12-18T03:12:31.064Z,37.4
2022-12-18T03:14:32.713Z,33.8
2022-12-18T03:16:34.434Z,34.4
2022-12-18T03:27:48.248Z,35.1
2022-12-18T03:29:49.889Z,35.5
2022-12-18T03:31:51.522Z,33.2
2022-12-18T03:33:53.211Z,35.6
2022-12-18T03:35:58.016Z,36.2
2022-12-18T03:37:59.683Z,34.2
2022-12-18T03:40:01.325Z,33
2022-12-18T03:42:02.995Z,34.3
2022-12-18T03:44:04.649Z,35
2022-12-18T03:46:06.346Z,35.2
2022-12-18T03:48:07.905Z,33
2022-12-18T03:50:13.092Z,39.1
2022-12-18T03:52:14.371Z,36
2022-12-18T03:54:16.012Z,35.1
2022-12-18T03:56:17.655Z,32
2022-12-18T03:58:19.308Z,32.5
2022-12-18T04:00:20.915Z,34.4
2022-12-18T04:02:22.702Z,35
2022-12-18T04:04:27.362Z,35.1
2022-12-18T04:06:28.999Z,35.1
2022-12-18T04:08:30.633Z,32.1
2022-12-18T04:10:32.294Z,32.9
2022-12-18T04:14:35.559Z,33.8
2022-12-18T04:16:37.165Z,33.9
2022-12-18T04:18:42.015Z,36.4
2022-12-18T04:20:43.660Z,37.4
2022-12-18T04:22:45.286Z,33.6
2022-12-18T04:23:47.701Z,35.7
2022-12-18T04:25:49.332Z,34.3
2022-12-18T04:29:52.586Z,35.1
2022-12-18T04:33:59.023Z,34.2
2022-12-18T04:36:00.662Z,35.1
2022-12-18T04:38:02.265Z,34.4
2022-12-18T04:40:03.902Z,31.4
2022-12-18T04:42:05.603Z,34.1
2022-12-18T04:44:07.156Z,33
2022-12-18T04:46:12.014Z,38
2022-12-18T04:48:13.562Z,35.3
2022-12-18T04:50:15.221Z,35.9
2022-12-18T04:52:16.844Z,32.9
2022-12-18T04:54:18.458Z,32.1
2022-12-18T04:56:20.078Z,33
2022-12-18T04:58:21.709Z,31.9
2022-12-18T05:04:29.774Z,33.6
2022-12-18T05:06:31.390Z,31.9
2022-12-18T05:12:36.259Z,32.2
2022-12-18T05:16:42.674Z,32.8
2022-12-18T05:18:44.313Z,33.9
2022-12-18T05:21:00.967Z,35.3
2022-12-18T05:23:02.562Z,32.6
2022-12-18T05:25:04.184Z,31.2
2022-12-18T05:27:08.970Z,35.1
2022-12-18T05:29:10.587Z,33.2
2022-12-18T05:31:12.251Z,30.8
2022-12-18T05:33:13.803Z,31.8
2022-12-18T05:35:15.672Z,33
2022-12-18T05:41:23.463Z,33.3
2022-12-18T05:43:25.097Z,31.8
2022-12-18T05:49:29.980Z,31.1
2022-12-18T05:51:31.573Z,32.9
2022-12-18T05:53:33.209Z,34.1
2022-12-18T05:57:39.640Z,31.3
2022-12-18T06:01:42.995Z,30.3
2022-12-18T06:03:44.976Z,33.3
2022-12-18T06:05:46.112Z,31.1
2022-12-18T06:09:52.526Z,33.3
2022-12-18T06:11:54.157Z,30.7
2022-12-18T06:13:58.564Z,31.4
2022-12-18T06:16:59.796Z,28.8
2022-12-18T06:19:01.403Z,29.6
2022-12-18T06:21:03.057Z,32.2
2022-12-18T06:23:07.861Z,32.5
2022-12-18T06:25:09.482Z,31.6
2022-12-18T06:27:11.111Z,33.6
2022-12-18T06:29:12.712Z,30.9
2022-12-18T06:31:14.409Z,30.2
2022-12-18T06:33:15.969Z,34.7
2022-12-18T06:35:17.579Z,33.4
2022-12-18T06:37:22.388Z,35.6
2022-12-18T06:39:24.007Z,35.3
2022-12-18T06:41:27.182Z,38.8
2022-12-18T06:45:30.416Z,31
2022-12-18T06:49:33.595Z,30.7
2022-12-18T06:55:41.621Z,30.1
2022-12-18T06:57:43.256Z,30.2
2022-12-18T06:59:44.866Z,28.1
2022-12-18T07:01:46.667Z,31.4
2022-12-18T07:05:52.873Z,33.3
2022-12-18T07:07:54.480Z,33
2022-12-18T07:10:58.508Z,34.7
2022-12-18T07:13:00.121Z,32.6
2022-12-18T07:15:01.707Z,29.3
2022-12-18T07:17:03.377Z,31.6
2022-12-18T07:19:08.131Z,31.2
2022-12-18T07:23:11.335Z,30.9
2022-12-18T07:25:12.947Z,28.8
2022-12-18T07:29:16.286Z,29.7
2022-12-18T07:31:17.840Z,30.1
2022-12-18T07:33:22.558Z,31.6
2022-12-18T07:35:25.391Z,27.7
2022-12-18T07:37:25.807Z,25.9
2022-12-18T07:39:27.402Z,31.9
2022-12-18T07:41:29.031Z,30.3
2022-12-18T07:45:32.302Z,28.7
2022-12-18T07:51:40.303Z,31
2022-12-18T07:53:42.476Z,29.9
2022-12-18T07:56:11.244Z,29.8
2022-12-18T08:01:51.674Z,32.8
2022-12-18T08:03:53.172Z,29.2
2022-12-18T08:05:54.841Z,29.4
2022-12-18T08:13:05.044Z,33.7
2022-12-18T08:17:08.537Z,30.5
2022-12-18T08:19:10.179Z,30.1
2022-12-18T08:21:11.836Z,40.9
2022-12-18T08:23:13.448Z,36.6
2022-12-18T08:25:15.049Z,34.6
2022-12-18T08:27:30.102Z,31
2022-12-18T08:29:21.781Z,39
2022-12-18T08:31:23.478Z,35.7
2022-12-18T08:33:24.869Z,33
2022-12-18T08:35:26.501Z,31.2
2022-12-18T08:37:28.117Z,28.1
2022-12-18T08:39:29.768Z,34.5
2022-12-18T08:41:31.400Z,35.5
2022-12-18T08:43:36.455Z,36.6
2022-12-18T08:45:38.099Z,33.3
2022-12-18T08:47:39.571Z,36.8
2022-12-18T08:51:42.965Z,47.6
2022-12-18T08:53:44.647Z,33.2
2022-12-18T08:55:50.204Z,30.4
2022-12-18T08:57:51.149Z,36
2022-12-18T08:59:52.847Z,31.5
2022-12-18T09:01:54.668Z,32.6
2022-12-18T09:04:17.577Z,39.9
2022-12-18T09:06:19.343Z,35.2
2022-12-18T09:10:25.847Z,35.8
2022-12-18T09:12:27.582Z,29.2
2022-12-18T09:14:29.309Z,33.7
2022-12-18T09:16:32.623Z,30.2
2022-12-18T09:18:32.716Z,30.5
2022-12-18T09:20:34.452Z,29.4
2022-12-18T09:22:36.179Z,30.6
2022-12-18T09:26:43.880Z,34
2022-12-18T09:28:44.569Z,36.3
2022-12-18T09:30:46.351Z,36
2022-12-18T09:32:48.028Z,33.9
2022-12-18T09:34:49.776Z,36.7
2022-12-18T09:36:51.485Z,34
2022-12-18T09:38:56.405Z,43.3
2022-12-18T09:40:58.167Z,38.4
2022-12-18T09:42:59.874Z,37.1
2022-12-18T09:45:01.718Z,37.4
2022-12-18T09:47:03.389Z,46.9
2022-12-18T09:49:05.130Z,38.2
2022-12-18T09:51:06.894Z,36
2022-12-18T09:53:11.797Z,39.7
2022-12-18T09:55:13.536Z,37.2
2022-12-18T09:57:15.331Z,38.5
2022-12-18T09:58:17.775Z,38.2
2022-12-18T10:00:19.548Z,38.9
2022-12-18T10:02:21.475Z,35.6
2022-12-18T10:04:23.293Z,37.6
2022-12-18T10:06:28.048Z,38.3
2022-12-18T10:08:29.828Z,38.1
2022-12-18T10:10:31.630Z,36.4
2022-12-18T10:12:33.393Z,34.8
2022-12-18T10:14:35.161Z,37.7
2022-12-18T10:16:36.956Z,36.5
2022-12-18T10:20:43.689Z,36.6
2022-12-18T10:22:45.478Z,33.3
2022-12-18T10:24:47.279Z,32.6
2022-12-18T10:26:49.139Z,30
2022-12-18T10:28:50.901Z,34
2022-12-18T10:30:52.773Z,28.1
2022-12-18T10:32:54.510Z,31.6
2022-12-18T10:35:00.733Z,33.9
2022-12-18T10:37:01.341Z,30.6
2022-12-18T10:39:03.168Z,29.6
2022-12-18T10:41:04.968Z,30.4
2022-12-18T10:43:06.806Z,31.3
2022-12-18T10:45:08.646Z,31.3
2022-12-18T10:47:11.931Z,38.7
2022-12-18T10:49:15.443Z,34.7
2022-12-18T10:51:17.277Z,28.6
2022-12-18T10:53:19.094Z,27.9
2022-12-18T10:54:21.588Z,30.4
2022-12-18T10:56:23.410Z,29.5
2022-12-18T10:58:26.946Z,29
2022-12-18T11:00:27.067Z,28.4
2022-12-18T11:02:32.361Z,29.7
2022-12-18T11:04:33.895Z,27.1
2022-12-18T11:06:35.747Z,23.2
2022-12-18T11:08:37.849Z,23.8
2022-12-18T11:10:39.396Z,25.9
2022-12-18T11:12:41.274Z,22.8
2022-12-18T11:17:16.891Z,19.4
2022-12-18T11:18:49.926Z,20.2
2022-12-18T11:20:56.890Z,20.7
2022-12-18T11:22:53.628Z,18.6
2022-12-18T11:25:22.912Z,17.2
2022-12-18T11:26:59.806Z,17.8
2022-12-18T11:28:59.165Z,17.3
2022-12-18T11:31:04.238Z,16.5
2022-12-18T11:33:06.056Z,17
2022-12-18T11:35:07.923Z,15.7
2022-12-18T11:37:09.768Z,13.9
2022-12-18T11:39:11.638Z,23.6
2022-12-18T11:49:24.139Z,13.5
2022-12-18T11:52:28.518Z,16.7
2022-12-18T11:56:32.248Z,14
2022-12-18T11:58:37.271Z,14.3
2022-12-18T12:00:39.164Z,15.9
2022-12-18T12:02:41.196Z,13.5
2022-12-18T12:04:42.886Z,14.2
2022-12-18T12:06:44.780Z,14.8
2022-12-18T12:08:46.674Z,15.6
2022-12-18T12:10:48.562Z,14.1
2022-12-18T12:12:53.618Z,14.7
2022-12-18T12:14:55.491Z,15.4
2022-12-18T12:16:57.349Z,13.6
2022-12-18T12:18:59.263Z,14.1
2022-12-18T12:21:01.122Z,14.5
2022-12-18T12:23:02.993Z,12.5
2022-12-18T12:25:04.871Z,13.6
2022-12-18T12:27:09.923Z,14.1
2022-12-18T12:29:13.423Z,12.9
2022-12-18T12:31:13.730Z,13
2022-12-18T12:33:17.097Z,15.3
2022-12-18T12:39:22.744Z,15
2022-12-18T12:41:27.790Z,15.6
2022-12-18T12:43:29.699Z,17.2
2022-12-18T12:47:54.431Z,13.1
2022-12-18T12:49:56.363Z,19.1
2022-12-18T12:51:58.239Z,15.8
2022-12-18T12:54:03.320Z,18.1
2022-12-18T12:56:05.232Z,14.7
2022-12-18T12:58:07.136Z,17.6
2022-12-18T13:02:11.019Z,14.3
2022-12-18T13:04:12.839Z,13.8
2022-12-18T13:06:14.747Z,15.2
2022-12-18T13:08:19.814Z,15.5
2022-12-18T13:10:21.742Z,13.7
2022-12-18T13:12:23.660Z,17.6
2022-12-18T13:14:25.570Z,13.6
2022-12-18T13:16:27.464Z,14.3
2022-12-18T13:18:29.421Z,13.1
2022-12-18T13:20:31.276Z,13.7
2022-12-18T13:22:36.353Z,14
2022-12-18T13:24:38.262Z,13.4
2022-12-18T13:26:40.170Z,13.8
2022-12-18T13:28:42.119Z,14.1
2022-12-18T13:30:44.016Z,12.6
2022-12-18T13:32:45.952Z,13.8
2022-12-18T13:34:47.885Z,13.7
2022-12-18T13:36:52.940Z,13.3
2022-12-18T13:38:54.822Z,14.5
2022-12-18T13:40:56.741Z,14
2022-12-18T13:41:59.288Z,13.6
2022-12-18T13:44:01.198Z,12.5
2022-12-18T13:46:03.125Z,15.3
2022-12-18T13:48:05.015Z,14.7
2022-12-18T13:50:10.087Z,14.8
2022-12-18T13:52:12.049Z,17.7
2022-12-18T13:54:13.974Z,16.7
2022-12-18T13:56:15.863Z,13.6
2022-12-18T14:00:19.667Z,14.8
2022-12-18T14:14:36.242Z,13.5
2022-12-18T14:16:38.168Z,13.4
2022-12-18T14:18:43.679Z,13.5
2022-12-18T14:20:49.261Z,14.2
2022-12-18T14:26:50.947Z,12.9
2022-12-18T14:28:52.761Z,14.4
2022-12-18T14:30:54.706Z,14.2
2022-12-18T14:38:06.090Z,15
2022-12-18T14:40:11.354Z,17.9
2022-12-18T14:44:11.793Z,14.4
2022-12-18T14:50:20.683Z,14.6
2022-12-18T14:58:28.295Z,14.5
2022-12-18T15:00:33.368Z,16.1
2022-12-18T15:04:37.185Z,20.7
2022-12-18T15:06:39.084Z,21.9
2022-12-18T15:08:40.970Z,18.3
2022-12-18T15:10:42.868Z,14
2022-12-18T15:12:44.800Z,14.3
2022-12-18T15:14:49.854Z,17.3
2022-12-18T15:16:51.748Z,15.1
2022-12-18T15:18:53.673Z,16.8
2022-12-18T15:24:59.406Z,17.2
2022-12-18T15:27:01.307Z,16.4
2022-12-18T15:29:08.239Z,16.6
2022-12-18T15:31:08.309Z,18.9
2022-12-18T15:33:10.182Z,14.9
2022-12-18T15:34:12.689Z,17.1
2022-12-18T15:36:14.593Z,17.2
2022-12-18T15:38:16.517Z,17.5
2022-12-18T15:40:18.434Z,14.7
2022-12-18T15:42:23.496Z,15.9
2022-12-18T15:44:25.411Z,17.7
2022-12-18T15:46:27.411Z,18.5
2022-12-18T15:48:29.254Z,18.3
2022-12-18T15:50:31.385Z,18.9
2022-12-18T15:56:40.051Z,19.1
2022-12-18T15:58:41.976Z,18.8
2022-12-18T16:04:47.727Z,17.6
2022-12-18T16:08:51.537Z,16
2022-12-18T16:12:58.546Z,16.4
2022-12-18T16:23:08.114Z,18.7
2022-12-18T16:29:17.025Z,19.8
2022-12-18T16:35:37.805Z,19.9
2022-12-18T16:37:42.866Z,20
2022-12-18T16:41:46.728Z,22.5
2022-12-18T16:43:54.413Z,20.5
2022-12-18T16:45:50.568Z,18.1
2022-12-18T16:47:52.477Z,25.9
2022-12-18T16:49:54.396Z,23.6
2022-12-18T16:51:59.493Z,25.1
2022-12-18T16:54:06.424Z,18.5
2022-12-18T16:56:03.342Z,19.4
2022-12-18T16:58:05.240Z,18.1
2022-12-18T17:00:07.227Z,19
2022-12-18T17:02:09.163Z,19
2022-12-18T17:04:11.061Z,18.7
2022-12-18T17:06:16.082Z,20.5
2022-12-18T17:08:18.024Z,19
2022-12-18T17:10:19.952Z,24.2
2022-12-18T17:12:21.867Z,18.6
2022-12-18T17:14:23.795Z,19.1
2022-12-18T17:16:25.784Z,18.5
2022-12-18T17:18:27.651Z,18.3
2022-12-18T17:20:32.728Z,19.9
2022-12-18T17:22:34.662Z,20.7
2022-12-18T17:24:36.587Z,17.5
2022-12-18T17:25:39.137Z,18.8
2022-12-18T17:27:41.062Z,23.3
2022-12-18T17:29:47.340Z,26
2022-12-18T17:31:45.021Z,25
2022-12-18T17:33:50.026Z,15.2
2022-12-18T17:35:51.958Z,21.5
2022-12-18T17:37:53.886Z,19.3
2022-12-18T17:39:55.873Z,24.5
2022-12-18T17:41:57.747Z,20.3
2022-12-18T17:43:59.683Z,19
2022-12-18T17:46:01.600Z,20.8
2022-12-18T17:48:06.694Z,19
2022-12-18T17:50:08.640Z,22.9
2022-12-18T17:52:10.584Z,23.2
2022-12-18T17:54:12.511Z,16.9
2022-12-18T17:56:14.462Z,20.3
2022-12-18T17:58:16.393Z,22.2
2022-12-18T18:00:18.320Z,21.8
2022-12-18T18:02:23.604Z,23.8
2022-12-18T18:04:25.343Z,25.9
2022-12-18T18:06:27.285Z,24.8
2022-12-18T18:08:29.213Z,26.4
2022-12-18T18:10:31.165Z,26.3
2022-12-18T18:12:33.071Z,21.1
2022-12-18T18:14:35.034Z,26.9
2022-12-18T18:16:40.159Z,27.9
2022-12-18T18:18:42.058Z,32.7
2022-12-18T18:20:44.008Z,26.6
2022-12-18T18:23:50.061Z,26.1
2022-12-18T18:25:51.951Z,24.5
2022-12-18T18:27:53.919Z,26.5
2022-12-18T18:29:58.990Z,23.3
2022-12-18T18:32:01.054Z,25.4
2022-12-18T18:34:02.867Z,27.4
2022-12-18T18:36:04.846Z,22.3
2022-12-18T18:38:06.782Z,22.9
2022-12-18T18:40:08.755Z,22.7
2022-12-18T18:42:10.671Z,25.7
2022-12-18T18:44:15.787Z,28.6
2022-12-18T18:46:17.868Z,26.6
2022-12-18T18:48:19.688Z,24.7
2022-12-18T18:50:21.593Z,27.7
2022-12-18T18:52:23.534Z,24.4
2022-12-18T18:54:25.493Z,24.4
2022-12-18T18:57:11.950Z,22
2022-12-18T18:58:32.525Z,25
2022-12-18T19:00:34.584Z,24
2022-12-18T19:02:36.536Z,21.5
2022-12-18T19:04:45.627Z,24.1
2022-12-18T19:06:40.297Z,22.5
2022-12-18T19:08:42.789Z,24.6
2022-12-18T19:10:44.181Z,23.4
2022-12-18T19:12:49.269Z,26.2
2022-12-18T19:14:51.250Z,24.9
2022-12-18T19:16:53.258Z,26.3
2022-12-18T19:17:55.715Z,26.6
2022-12-18T19:19:57.656Z,25.5
2022-12-18T19:21:59.608Z,24.2
2022-12-18T19:24:01.599Z,25.3
2022-12-18T19:28:09.976Z,25.6
2022-12-18T19:30:10.555Z,24.3
2022-12-18T19:32:12.545Z,26.8
2022-12-18T19:34:14.475Z,24.7
2022-12-18T19:36:16.414Z,26
2022-12-18T19:38:18.323Z,25.9
2022-12-18T19:40:23.436Z,26.7
2022-12-18T19:42:29.447Z,27.2
2022-12-18T19:44:27.333Z,25.8
2022-12-18T19:46:29.287Z,24.8
2022-12-18T19:48:31.214Z,26.3
2022-12-18T19:50:33.224Z,26.8
2022-12-18T19:52:35.113Z,27.2
2022-12-18T19:54:40.205Z,24.8
2022-12-18T19:56:42.175Z,27.5
2022-12-18T19:58:44.805Z,32.1
2022-12-18T20:02:48.064Z,27.6
2022-12-18T20:04:49.958Z,27.7
2022-12-18T20:06:51.885Z,29.5
2022-12-18T20:10:58.936Z,31.8
2022-12-18T20:13:00.903Z,31
2022-12-18T20:15:23.885Z,29.2
2022-12-18T20:19:27.776Z,24.7
2022-12-18T20:21:32.932Z,28
2022-12-18T20:27:38.751Z,24.2
2022-12-18T20:29:40.682Z,26
2022-12-18T20:31:42.688Z,28
2022-12-18T20:33:47.628Z,18.8
2022-12-18T20:35:49.696Z,27.4
2022-12-18T20:37:51.880Z,27.1
2022-12-18T20:39:53.608Z,27.7
2022-12-18T20:41:55.525Z,27.5
2022-12-18T20:43:57.481Z,26.2
2022-12-18T20:45:59.550Z,23.6
2022-12-18T20:48:01.433Z,26.3
2022-12-18T20:50:06.565Z,27.6
2022-12-18T20:52:08.502Z,27.2
2022-12-18T20:54:11.899Z,26.2
2022-12-18T20:56:12.393Z,29.8
2022-12-18T20:58:14.384Z,24.1
2022-12-18T21:00:16.510Z,26.3
2022-12-18T21:02:18.477Z,27.3
2022-12-18T21:04:23.406Z,26.3
2022-12-18T21:06:25.341Z,23.1
2022-12-18T21:08:27.272Z,28.2
2022-12-18T21:09:38.444Z,28
2022-12-18T21:11:31.761Z,26.2
2022-12-18T21:13:33.720Z,28.2
2022-12-18T21:17:44.398Z,29.2
2022-12-18T21:19:42.704Z,27
2022-12-18T21:21:44.669Z,25.9
2022-12-18T21:23:46.631Z,25.3
2022-12-18T21:25:49.958Z,20.4
2022-12-18T21:27:50.530Z,27.1
2022-12-18T21:29:52.748Z,28.3
2022-12-18T21:31:57.560Z,27
2022-12-18T21:34:02.464Z,25.2
2022-12-18T21:36:01.450Z,26.9
2022-12-18T21:38:05.777Z,15.8
2022-12-18T21:40:05.825Z,21.6
2022-12-18T21:42:07.299Z,28.4
2022-12-18T21:44:09.287Z,27.9
2022-12-18T21:46:14.416Z,29.7
2022-12-18T21:48:16.287Z,29
2022-12-18T21:50:18.229Z,26.3
2022-12-18T21:52:20.198Z,27.8
2022-12-18T21:54:22.133Z,31.1
2022-12-18T21:56:24.098Z,25.8
2022-12-18T21:58:26.027Z,29.7
2022-12-18T22:00:31.119Z,31.3
2022-12-18T22:04:35.041Z,30.7
2022-12-18T22:05:37.616Z,31.3
2022-12-18T22:07:39.548Z,26.1
2022-12-18T22:09:41.477Z,32.7
2022-12-18T22:11:43.428Z,29.3
2022-12-18T22:13:48.535Z,31.7
2022-12-18T22:15:50.512Z,29.2
2022-12-18T22:18:00.211Z,29.2
2022-12-18T22:19:54.364Z,29.5
2022-12-18T22:21:56.310Z,29.7
2022-12-18T22:23:58.271Z,29.5
2022-12-18T22:26:00.180Z,26.9
2022-12-18T22:28:05.309Z,32.1
2022-12-18T22:30:07.281Z,32.5
2022-12-18T22:32:09.214Z,25.7
2022-12-18T22:34:11.158Z,31.2
2022-12-18T22:36:13.110Z,30.6
2022-12-18T22:38:15.022Z,24.9
2022-12-18T22:40:20.654Z,29.4
2022-12-18T22:42:22.086Z,33
2022-12-18T22:44:24.052Z,29.2
2022-12-18T22:46:26.051Z,28.8
2022-12-18T22:48:27.902Z,33.5
2022-12-18T22:50:29.854Z,27.6
2022-12-18T22:52:31.810Z,31.2
2022-12-18T22:54:33.727Z,32.6
2022-12-18T22:56:38.812Z,31.9
2022-12-18T22:58:40.749Z,30.6
2022-12-18T23:00:42.711Z,32.1
2022-12-18T23:07:51.085Z,32.1
2022-12-18T23:10:00.695Z,34.5
2022-12-18T23:11:58.160Z,28.9
2022-12-18T23:14:00.089Z,32.1
2022-12-18T23:16:02.057Z,33.6
2022-12-18T23:18:03.964Z,30.5
2022-12-18T23:20:05.917Z,30
2022-12-18T23:22:11.705Z,29.7
2022-12-18T23:24:12.932Z,33.5
2022-12-18T23:26:14.885Z,32.2
2022-12-18T23:28:16.848Z,27.9
2022-12-18T23:30:18.797Z,31.1
2022-12-18T23:32:20.717Z,29.9
2022-12-18T23:34:22.654Z,29.5
2022-12-18T23:36:24.595Z,32.9
2022-12-18T23:38:29.721Z,33.1
2022-12-18T23:40:31.682Z,22.9
2022-12-18T23:42:33.601Z,29.4
2022-12-18T23:44:35.590Z,30.4
2022-12-18T23:46:37.616Z,20.1
2022-12-18T23:48:39.487Z,27.5
2022-12-18T23:50:41.427Z,31.8
2022-12-18T23:52:46.503Z,35.1
2022-12-18T23:54:48.448Z,31.1
2022-12-18T23:56:50.416Z,29.8
2022-12-18T23:59:07.583Z,26.9
